createdAt,value
2023-10-07T00:01:03.509Z,4.73
2023-10-07T00:03:31.782Z,3.90
2023-10-07T00:06:03.068Z,3.83
2023-10-07T00:08:32.474Z,3.90
2023-10-07T00:11:01.585Z,4.07
2023-10-07T00:13:32.941Z,3.97
2023-10-07T00:16:02.423Z,3.53
2023-10-07T00:18:32.299Z,3.90
2023-10-07T00:21:04.039Z,3.70
2023-10-07T00:23:36.300Z,3.33
2023-10-07T00:26:09.590Z,3.63
2023-10-07T00:28:38.433Z,3.70
2023-10-07T00:31:14.381Z,3.80
2023-10-07T00:33:52.217Z,3.83
2023-10-07T00:36:43.237Z,3.33
2023-10-07T00:39:22.122Z,3.77
2023-10-07T00:41:51.582Z,3.37
2023-10-07T00:44:24.452Z,3.53
2023-10-07T00:47:10.184Z,3.90
2023-10-07T00:49:42.698Z,3.50
2023-10-07T00:52:16.219Z,3.20
2023-10-07T00:54:51.842Z,3.57
2023-10-07T00:57:35.950Z,3.73
2023-10-07T01:00:15.879Z,3.53
2023-10-07T01:02:47.183Z,2.97
2023-10-07T01:05:22.825Z,3.60
2023-10-07T01:07:55.491Z,3.57
2023-10-07T01:10:27.992Z,3.73
2023-10-07T01:13:01.173Z,2.90
2023-10-07T01:15:31.545Z,2.93
2023-10-07T01:18:06.050Z,2.93
2023-10-07T01:20:39.332Z,3.10
2023-10-07T01:23:09.359Z,3.13
2023-10-07T01:25:42.041Z,2.93
2023-10-07T01:28:12.571Z,3.50
2023-10-07T01:30:41.098Z,3.50
2023-10-07T01:33:14.356Z,3.83
2023-10-07T01:36:02.993Z,3.90
2023-10-07T01:38:34.487Z,4.73
2023-10-07T01:41:08.216Z,5.00
2023-10-07T01:43:41.475Z,4.50
2023-10-07T01:46:12.064Z,5.40
2023-10-07T01:48:50.753Z,5.33
2023-10-07T01:51:19.177Z,7.67
2023-10-07T01:53:49.120Z,5.90
2023-10-07T01:56:17.232Z,7.57
2023-10-07T01:58:47.207Z,6.37
2023-10-07T02:01:18.245Z,7.27
2023-10-07T02:03:47.778Z,6.50
2023-10-07T02:06:19.502Z,7.10
2023-10-07T02:08:49.236Z,7.40
2023-10-07T02:11:26.785Z,6.10
2023-10-07T02:13:56.884Z,5.50
2023-10-07T02:16:27.403Z,5.97
2023-10-07T02:18:55.574Z,4.23
2023-10-07T02:21:24.635Z,4.47
2023-10-07T02:23:54.410Z,4.43
2023-10-07T02:26:24.062Z,5.37
2023-10-07T02:28:54.784Z,4.43
2023-10-07T02:31:25.792Z,5.20
2023-10-07T02:33:59.184Z,4.93
2023-10-07T02:36:33.431Z,4.87
2023-10-07T02:39:06.475Z,4.23
2023-10-07T02:41:35.881Z,4.00
2023-10-07T02:44:11.479Z,3.97
2023-10-07T02:46:40.479Z,4.60
2023-10-07T02:49:11.841Z,5.10
2023-10-07T02:51:47.324Z,3.83
2023-10-07T02:54:21.967Z,4.87
2023-10-07T02:56:57.543Z,4.70
2023-10-07T02:59:29.409Z,3.73
2023-10-07T03:02:28.034Z,4.30
2023-10-07T03:05:15.219Z,3.17
2023-10-07T03:07:50.936Z,3.90
2023-10-07T03:10:31.362Z,3.90
2023-10-07T03:12:59.656Z,4.73
2023-10-07T03:15:46.110Z,4.03
2023-10-07T03:18:24.954Z,4.07
2023-10-07T03:21:13.193Z,3.83
2023-10-07T03:23:47.508Z,4.17
2023-10-07T03:26:22.220Z,4.37
2023-10-07T03:28:53.621Z,5.37
2023-10-07T03:31:34.420Z,5.17
2023-10-07T03:34:09.076Z,4.90
2023-10-07T03:36:46.708Z,5.10
2023-10-07T03:39:27.654Z,5.87
2023-10-07T03:42:01.264Z,5.40
2023-10-07T03:44:32.872Z,6.23
2023-10-07T03:47:01.388Z,5.20
2023-10-07T03:49:37.463Z,5.70
2023-10-07T03:52:09.121Z,5.73
2023-10-07T03:54:42.109Z,6.00
2023-10-07T03:57:12.281Z,6.03
2023-10-07T03:59:40.571Z,5.60
2023-10-07T04:02:31.336Z,6.13
2023-10-07T04:05:11.678Z,7.13
2023-10-07T04:07:40.744Z,7.70
2023-10-07T04:10:32.764Z,8.73
2023-10-07T04:13:09.060Z,10.40
2023-10-07T04:15:52.451Z,11.23
2023-10-07T04:18:28.294Z,11.20
2023-10-07T04:21:00.077Z,11.97
2023-10-07T04:23:28.666Z,10.10
2023-10-07T04:26:09.861Z,7.17
2023-10-07T04:28:41.090Z,6.33
2023-10-07T04:31:12.931Z,5.97
2023-10-07T04:33:43.077Z,5.83
2023-10-07T04:36:16.405Z,5.97
2023-10-07T04:38:58.551Z,6.90
2023-10-07T04:41:32.261Z,6.13
2023-10-07T04:44:22.443Z,6.17
2023-10-07T04:46:57.729Z,5.07
2023-10-07T04:49:38.095Z,7.10
2023-10-07T04:52:09.344Z,6.77
2023-10-07T04:54:40.213Z,6.60
2023-10-07T04:57:12.043Z,5.93
2023-10-07T04:59:47.321Z,6.80
2023-10-07T05:02:17.234Z,7.47
2023-10-07T05:04:52.226Z,8.13
2023-10-07T05:07:28.265Z,7.30
2023-10-07T05:09:57.808Z,7.07
2023-10-07T05:12:25.041Z,6.83
2023-10-07T05:14:56.564Z,7.53
2023-10-07T05:17:24.550Z,7.23
2023-10-07T05:19:52.774Z,6.87
2023-10-07T05:22:20.777Z,7.60
2023-10-07T05:24:53.075Z,6.97
2023-10-07T05:27:21.242Z,24.37
2023-10-07T05:29:50.151Z,10.67
2023-10-07T05:32:20.196Z,9.57
2023-10-07T05:34:48.740Z,11.23
2023-10-07T05:37:16.902Z,7.37
2023-10-07T05:39:45.747Z,7.47
2023-10-07T05:42:14.248Z,6.43
2023-10-07T05:44:42.797Z,6.03
2023-10-07T05:47:13.693Z,6.67
2023-10-07T05:49:43.759Z,7.13
2023-10-07T05:52:12.346Z,7.80
2023-10-07T05:54:42.220Z,8.03
2023-10-07T05:57:10.554Z,9.63
2023-10-07T05:59:39.329Z,9.27
2023-10-07T06:02:14.459Z,6.20
2023-10-07T06:04:45.700Z,5.80
2023-10-07T06:07:14.740Z,5.47
2023-10-07T06:09:44.156Z,7.37
2023-10-07T06:12:13.650Z,6.37
2023-10-07T06:14:42.134Z,6.20
2023-10-07T06:17:13.333Z,6.33
2023-10-07T06:19:44.984Z,6.67
2023-10-07T06:22:16.761Z,6.13
2023-10-07T06:24:45.441Z,5.77
2023-10-07T06:27:14.690Z,5.90
2023-10-07T06:29:45.527Z,7.57
2023-10-07T06:32:31.590Z,6.87
2023-10-07T06:35:01.110Z,7.37
2023-10-07T06:37:31.456Z,7.70
2023-10-07T06:40:02.578Z,8.83
2023-10-07T06:42:31.072Z,7.57
2023-10-07T06:45:03.895Z,9.23
2023-10-07T06:47:34.473Z,6.97
2023-10-07T06:50:05.116Z,13.80
2023-10-07T06:52:35.152Z,10.93
2023-10-07T06:55:11.363Z,8.57
2023-10-07T06:57:44.476Z,7.07
2023-10-07T07:00:24.646Z,8.37
2023-10-07T07:02:59.304Z,9.07
2023-10-07T07:05:29.397Z,7.13
2023-10-07T07:08:05.080Z,19.03
2023-10-07T07:10:33.278Z,10.47
2023-10-07T07:13:06.875Z,9.20
2023-10-07T07:15:41.193Z,18.93
2023-10-07T07:18:26.964Z,28.00
2023-10-07T07:21:03.822Z,12.43
2023-10-07T07:23:37.641Z,11.17
2023-10-07T07:26:11.295Z,10.30
2023-10-07T07:28:44.304Z,8.03
2023-10-07T07:31:21.165Z,11.10
2023-10-07T07:33:52.322Z,9.80
2023-10-07T07:36:39.084Z,20.50
2023-10-07T07:39:11.855Z,11.73
2023-10-07T07:41:56.669Z,8.43
2023-10-07T07:44:34.938Z,8.77
2023-10-07T07:47:05.615Z,7.07
2023-10-07T07:49:34.909Z,7.00
2023-10-07T07:52:03.872Z,5.97
2023-10-07T07:54:33.584Z,7.40
2023-10-07T07:57:05.696Z,6.97
2023-10-07T07:59:34.913Z,6.90
2023-10-07T08:02:14.242Z,7.17
2023-10-07T08:04:48.476Z,6.17
2023-10-07T08:07:26.118Z,5.87
2023-10-07T08:09:59.886Z,6.90
2023-10-07T08:12:35.665Z,6.47
2023-10-07T08:15:20.059Z,6.10
2023-10-07T08:17:51.265Z,6.77
2023-10-07T08:20:31.448Z,5.83
2023-10-07T08:23:08.651Z,6.13
2023-10-07T08:25:47.642Z,5.03
2023-10-07T08:28:30.352Z,6.07
2023-10-07T08:31:13.873Z,6.50
2023-10-07T08:33:42.935Z,7.00
2023-10-07T08:36:11.296Z,5.90
2023-10-07T08:38:45.573Z,5.67
2023-10-07T08:41:18.539Z,5.90
2023-10-07T08:44:04.986Z,5.67
2023-10-07T08:46:41.258Z,6.43
2023-10-07T08:49:15.238Z,5.70
2023-10-07T08:51:45.271Z,6.43
2023-10-07T08:54:18.928Z,6.77
2023-10-07T08:56:56.037Z,6.33
2023-10-07T08:59:25.990Z,6.20
2023-10-07T09:01:58.896Z,5.90
2023-10-07T09:04:33.234Z,5.90
2023-10-07T09:07:09.796Z,6.50
2023-10-07T09:09:40.877Z,6.87
2023-10-07T09:12:16.135Z,6.47
2023-10-07T09:14:53.989Z,6.87
2023-10-07T09:17:23.521Z,6.50
2023-10-07T09:19:54.513Z,6.47
2023-10-07T09:22:25.638Z,6.30
2023-10-07T09:24:55.904Z,5.67
2023-10-07T09:27:38.403Z,4.77
2023-10-07T09:30:29.869Z,5.40
2023-10-07T09:32:59.140Z,5.50
2023-10-07T09:35:28.292Z,5.40
2023-10-07T09:38:01.381Z,5.60
2023-10-07T09:40:44.468Z,4.93
2023-10-07T09:43:21.150Z,5.60
2023-10-07T09:45:54.013Z,5.10
2023-10-07T09:48:25.245Z,5.10
2023-10-07T09:50:57.553Z,5.80
2023-10-07T09:53:37.860Z,4.73
2023-10-07T09:56:31.024Z,5.17
2023-10-07T09:59:16.915Z,5.83
2023-10-07T10:02:07.560Z,5.23
2023-10-07T10:04:55.752Z,5.00
2023-10-07T10:07:48.628Z,5.27
2023-10-07T10:10:17.669Z,4.57
2023-10-07T10:13:08.414Z,5.30
2023-10-07T10:15:57.085Z,5.50
2023-10-07T10:18:41.349Z,6.07
2023-10-07T10:21:14.130Z,6.17
2023-10-07T10:23:42.750Z,6.10
2023-10-07T10:26:22.447Z,6.03
2023-10-07T10:29:01.645Z,6.00
2023-10-07T10:31:36.230Z,6.20
2023-10-07T10:34:07.417Z,6.73
2023-10-07T10:36:42.651Z,6.37
2023-10-07T10:42:03.584Z,5.27
2023-10-07T10:44:40.886Z,6.00
2023-10-07T10:47:11.053Z,6.20
2023-10-07T10:49:45.397Z,6.23
2023-10-07T10:52:15.470Z,5.77
2023-10-07T10:54:45.240Z,6.73
2023-10-07T10:57:16.008Z,6.00
2023-10-07T10:59:45.097Z,5.93
2023-10-07T11:02:18.970Z,5.30
2023-10-07T11:04:48.098Z,4.90
2023-10-07T11:07:16.744Z,5.70
2023-10-07T11:09:49.021Z,5.30
2023-10-07T11:12:19.184Z,5.83
2023-10-07T11:14:49.145Z,4.97
2023-10-07T11:17:18.978Z,6.13
2023-10-07T11:19:48.916Z,5.63
2023-10-07T11:22:21.080Z,4.83
2023-10-07T11:24:51.958Z,5.60
2023-10-07T11:27:24.992Z,4.60
2023-10-07T11:30:00.209Z,4.83
2023-10-07T11:32:35.664Z,5.00
2023-10-07T11:35:04.175Z,4.53
2023-10-07T11:37:34.218Z,4.80
2023-10-07T11:40:03.556Z,4.93
2023-10-07T11:42:31.801Z,5.03
2023-10-07T11:45:00.159Z,4.53
2023-10-07T11:47:28.780Z,4.83
2023-10-07T11:49:58.391Z,4.57
2023-10-07T11:52:29.430Z,4.63
2023-10-07T11:54:57.824Z,4.30
2023-10-07T11:57:26.186Z,4.50
2023-10-07T11:59:54.610Z,4.00
2023-10-07T12:02:23.116Z,4.03
2023-10-07T12:04:55.416Z,4.30
2023-10-07T12:07:24.840Z,3.57
2023-10-07T12:09:52.846Z,3.65
2023-10-07T12:12:21.250Z,3.80
2023-10-07T12:14:49.960Z,4.40
2023-10-07T12:17:18.370Z,4.55
2023-10-07T12:19:47.069Z,3.80
2023-10-07T12:22:17.447Z,4.30
2023-10-07T12:24:48.033Z,3.90
2023-10-07T12:27:16.118Z,4.00
2023-10-07T12:29:45.455Z,3.78
2023-10-07T12:32:13.741Z,3.78
2023-10-07T12:34:49.180Z,4.60
2023-10-07T12:37:17.664Z,4.20
2023-10-07T12:39:50.526Z,3.67
2023-10-07T12:42:19.786Z,3.60
2023-10-07T12:44:47.916Z,4.20
2023-10-07T12:47:16.208Z,3.80
2023-10-07T12:49:46.983Z,3.95
2023-10-07T12:52:17.335Z,3.35
2023-10-07T12:54:47.061Z,3.67
2023-10-07T12:57:16.964Z,3.28
2023-10-07T12:59:48.487Z,3.50
2023-10-07T13:02:18.902Z,3.45
2023-10-07T13:04:49.301Z,3.53
2023-10-07T13:07:19.259Z,3.25
2023-10-07T13:09:49.026Z,3.40
2023-10-07T13:12:18.647Z,3.33
2023-10-07T13:14:47.823Z,3.58
2023-10-07T13:17:16.569Z,3.42
2023-10-07T13:19:49.564Z,2.90
2023-10-07T13:22:19.627Z,3.33
2023-10-07T13:24:49.262Z,2.85
2023-10-07T13:27:17.783Z,3.20
2023-10-07T13:29:49.362Z,3.28
2023-10-07T13:32:17.747Z,3.13
2023-10-07T13:34:45.670Z,2.72
2023-10-07T13:37:14.015Z,3.10
2023-10-07T13:39:42.939Z,3.08
2023-10-07T13:42:12.652Z,3.03
2023-10-07T13:44:41.648Z,2.50
2023-10-07T13:47:10.244Z,2.75
2023-10-07T13:49:41.770Z,2.85
2023-10-07T13:52:11.172Z,2.85
2023-10-07T13:54:48.690Z,2.92
2023-10-07T13:57:25.557Z,2.50
2023-10-07T13:59:54.019Z,2.30
2023-10-07T14:02:22.597Z,2.70
2023-10-07T14:04:54.572Z,4.07
2023-10-07T14:07:22.582Z,2.70
2023-10-07T14:09:50.808Z,2.58
2023-10-07T14:12:20.782Z,2.30
2023-10-07T14:14:54.125Z,2.30
2023-10-07T14:17:24.361Z,2.92
2023-10-07T14:19:53.132Z,2.55
2023-10-07T14:22:21.965Z,3.00
2023-10-07T14:24:49.990Z,2.87
2023-10-07T14:27:19.531Z,2.78
2023-10-07T14:29:49.053Z,2.33
2023-10-07T14:32:17.836Z,2.35
2023-10-07T14:34:46.277Z,2.67
2023-10-07T14:37:14.455Z,2.97
2023-10-07T14:39:57.805Z,2.83
2023-10-07T14:42:33.085Z,2.75
2023-10-07T14:45:01.518Z,2.65
2023-10-07T14:47:32.911Z,2.60
2023-10-07T14:50:01.935Z,2.70
2023-10-07T14:52:30.076Z,2.20
2023-10-07T14:55:00.480Z,3.03
2023-10-07T14:57:30.515Z,2.65
2023-10-07T14:59:58.521Z,2.88
2023-10-07T15:02:26.794Z,2.92
2023-10-07T15:04:55.089Z,3.33
2023-10-07T15:07:23.248Z,3.20
2023-10-07T15:09:51.868Z,2.65
2023-10-07T15:12:20.019Z,3.25
2023-10-07T15:14:49.852Z,3.92
2023-10-07T15:17:19.341Z,3.67
2023-10-07T15:19:52.850Z,3.47
2023-10-07T15:22:22.882Z,3.80
2023-10-07T15:24:51.121Z,3.33
2023-10-07T15:27:19.375Z,3.60
2023-10-07T15:29:49.608Z,3.75
2023-10-07T15:32:19.501Z,3.23
2023-10-07T15:34:47.881Z,4.03
2023-10-07T15:37:17.492Z,3.40
2023-10-07T15:39:45.956Z,3.43
2023-10-07T15:42:16.690Z,3.37
2023-10-07T15:44:45.061Z,3.60
2023-10-07T15:47:13.417Z,3.43
2023-10-07T15:49:46.097Z,3.57
2023-10-07T15:52:14.452Z,3.80
2023-10-07T15:54:42.677Z,4.40
2023-10-07T15:57:11.293Z,3.67
2023-10-07T15:59:39.524Z,3.80
2023-10-07T16:02:09.068Z,7.93
2023-10-07T16:04:38.592Z,4.07
2023-10-07T16:07:08.252Z,4.20
2023-10-07T16:09:36.554Z,5.60
2023-10-07T16:12:05.149Z,9.37
2023-10-07T16:14:35.621Z,5.40
2023-10-07T16:17:04.136Z,6.53
2023-10-07T16:19:32.614Z,9.27
2023-10-07T16:22:01.518Z,4.57
2023-10-07T16:24:30.980Z,5.30
2023-10-07T16:26:59.035Z,4.97
2023-10-07T16:29:27.284Z,4.43
2023-10-07T16:31:56.476Z,4.67
2023-10-07T16:34:24.741Z,4.63
2023-10-07T16:36:52.894Z,4.87
2023-10-07T16:39:22.214Z,3.43
2023-10-07T16:41:55.861Z,4.87
2023-10-07T16:44:24.310Z,4.57
2023-10-07T16:46:52.963Z,5.10
2023-10-07T16:49:22.547Z,5.20
2023-10-07T16:51:52.831Z,4.70
2023-10-07T16:54:21.092Z,5.60
2023-10-07T16:56:49.114Z,5.63
2023-10-07T16:59:19.001Z,5.53
2023-10-07T17:01:47.489Z,4.13
2023-10-07T17:04:16.648Z,5.10
2023-10-07T17:06:46.398Z,4.60
2023-10-07T17:09:16.150Z,4.57
2023-10-07T17:11:44.355Z,5.73
2023-10-07T17:14:12.588Z,5.10
2023-10-07T17:16:44.154Z,4.80
2023-10-07T17:19:13.168Z,4.50
2023-10-07T17:21:41.453Z,6.30
2023-10-07T17:24:10.134Z,4.57
2023-10-07T17:26:39.026Z,5.37
2023-10-07T17:29:07.805Z,4.53
2023-10-07T17:31:36.412Z,7.67
2023-10-07T17:34:06.076Z,13.27
2023-10-07T17:36:34.981Z,6.47
2023-10-07T17:39:03.314Z,11.20
2023-10-07T17:41:31.813Z,4.50
2023-10-07T17:43:59.917Z,5.83
2023-10-07T17:46:30.038Z,8.83
2023-10-07T17:48:58.787Z,3.97
2023-10-07T17:51:29.177Z,5.33
2023-10-07T17:53:57.240Z,10.90
2023-10-07T17:56:26.182Z,12.63
2023-10-07T17:58:54.182Z,9.53
2023-10-07T18:01:22.321Z,7.60
2023-10-07T18:03:50.627Z,8.53
2023-10-07T18:06:18.734Z,4.87
2023-10-07T18:08:48.347Z,3.90
2023-10-07T18:11:18.663Z,5.40
2023-10-07T18:13:46.740Z,6.07
2023-10-07T18:16:16.200Z,4.20
2023-10-07T18:18:44.846Z,3.83
2023-10-07T18:21:14.376Z,5.90
2023-10-07T18:23:42.831Z,4.00
2023-10-07T18:26:12.563Z,4.03
2023-10-07T18:28:41.883Z,4.00
2023-10-07T18:31:12.297Z,9.30
2023-10-07T18:33:40.680Z,7.67
2023-10-07T18:36:10.131Z,5.53
2023-10-07T18:38:38.416Z,7.73
2023-10-07T18:41:07.299Z,7.43
2023-10-07T18:43:39.764Z,5.07
2023-10-07T18:46:08.201Z,4.37
2023-10-07T18:48:36.373Z,5.13
2023-10-07T18:51:08.692Z,3.80
2023-10-07T18:53:36.974Z,5.07
2023-10-07T18:56:07.704Z,4.93
2023-10-07T18:58:37.833Z,3.40
2023-10-07T19:01:06.584Z,3.63
2023-10-07T19:03:35.062Z,4.47
2023-10-07T19:06:05.583Z,3.90
2023-10-07T19:08:34.406Z,3.93
2023-10-07T19:11:07.518Z,4.50
2023-10-07T19:13:37.082Z,5.30
2023-10-07T19:16:05.733Z,4.73
2023-10-07T19:18:33.902Z,6.27
2023-10-07T19:21:04.927Z,6.93
2023-10-07T19:23:33.284Z,22.20
2023-10-07T19:26:07.119Z,28.27
2023-10-07T19:28:36.934Z,4.50
2023-10-07T19:31:05.777Z,4.23
2023-10-07T19:33:34.185Z,4.50
2023-10-07T19:36:07.596Z,4.13
2023-10-07T19:38:36.914Z,3.53
2023-10-07T19:41:07.317Z,3.67
2023-10-07T19:43:40.863Z,3.43
2023-10-07T19:46:09.670Z,4.20
2023-10-07T19:48:38.120Z,3.27
2023-10-07T19:51:06.790Z,3.03
2023-10-07T19:53:36.453Z,3.67
2023-10-07T19:56:04.454Z,4.03
2023-10-07T19:58:32.548Z,3.73
2023-10-07T20:01:07.786Z,3.10
2023-10-07T20:03:36.825Z,3.73
2023-10-07T20:06:10.741Z,3.57
2023-10-07T20:08:41.408Z,3.20
2023-10-07T20:11:10.622Z,3.33
2023-10-07T20:13:38.818Z,2.77
2023-10-07T20:16:09.641Z,3.53
2023-10-07T20:18:37.717Z,3.33
2023-10-07T20:21:06.812Z,3.83
2023-10-07T20:23:35.010Z,3.40
2023-10-07T20:26:06.305Z,4.00
2023-10-07T20:28:39.503Z,3.70
2023-10-07T20:31:18.863Z,3.20
2023-10-07T20:33:48.695Z,3.37
2023-10-07T20:36:19.716Z,3.00
2023-10-07T20:38:52.741Z,3.17
2023-10-07T20:41:20.954Z,3.87
2023-10-07T20:43:49.554Z,3.53
2023-10-07T20:46:19.361Z,3.50
2023-10-07T20:48:47.733Z,4.00
2023-10-07T20:51:17.505Z,4.60
2023-10-07T20:53:47.676Z,4.70
2023-10-07T20:56:22.017Z,4.53
2023-10-07T20:58:50.270Z,4.90
2023-10-07T21:01:21.719Z,4.40
2023-10-07T21:03:51.697Z,4.90
2023-10-07T21:06:21.685Z,4.87
2023-10-07T21:08:53.611Z,4.90
2023-10-07T21:11:24.331Z,6.00
2023-10-07T21:13:52.822Z,5.20
2023-10-07T21:16:23.466Z,5.20
2023-10-07T21:18:52.727Z,5.10
2023-10-07T21:21:20.988Z,4.23
2023-10-07T21:23:49.184Z,4.03
2023-10-07T21:26:22.827Z,4.70
2023-10-07T21:28:52.559Z,3.80
2023-10-07T21:31:27.101Z,4.73
2023-10-07T21:33:55.931Z,4.00
2023-10-07T21:36:25.502Z,3.80
2023-10-07T21:38:53.786Z,3.33
2023-10-07T21:41:22.172Z,5.00
2023-10-07T21:43:51.761Z,4.60
2023-10-07T21:46:20.915Z,4.87
2023-10-07T21:48:51.788Z,4.53
2023-10-07T21:51:21.230Z,4.37
2023-10-07T21:53:49.582Z,4.67
2023-10-07T21:56:19.345Z,4.17
2023-10-07T21:58:48.849Z,4.40
2023-10-07T22:01:19.086Z,4.97
2023-10-07T22:03:50.003Z,4.50
2023-10-07T22:06:20.052Z,4.47
2023-10-07T22:08:48.595Z,5.50
2023-10-07T22:11:17.113Z,5.33
2023-10-07T22:13:45.655Z,5.20
2023-10-07T22:16:13.772Z,5.23
2023-10-07T22:18:42.668Z,3.83
2023-10-07T22:21:14.353Z,5.00
2023-10-07T22:23:45.265Z,5.87
2023-10-07T22:26:20.480Z,5.00
2023-10-07T22:28:48.969Z,5.53
2023-10-07T22:31:19.063Z,4.50
2023-10-07T22:33:47.043Z,4.73
2023-10-07T22:36:23.697Z,4.90
2023-10-07T22:38:56.363Z,4.63
2023-10-07T22:41:39.438Z,5.17
2023-10-07T22:44:22.593Z,5.10
2023-10-07T22:46:53.251Z,5.67
2023-10-07T22:49:24.236Z,4.67
2023-10-07T22:51:57.494Z,5.00
2023-10-07T22:54:33.677Z,5.60
2023-10-07T22:57:06.670Z,5.13
2023-10-07T22:59:35.273Z,5.23
2023-10-07T23:02:07.512Z,5.23
2023-10-07T23:04:35.927Z,5.17
2023-10-07T23:07:13.935Z,4.53
2023-10-07T23:09:48.877Z,5.13
2023-10-07T23:12:18.874Z,4.10
2023-10-07T23:14:48.639Z,4.27
2023-10-07T23:17:27.505Z,4.77
2023-10-07T23:19:56.723Z,3.57
2023-10-07T23:22:28.418Z,4.50
2023-10-07T23:25:12.213Z,3.13
2023-10-07T23:27:45.286Z,3.40
2023-10-07T23:30:27.350Z,2.77
2023-10-07T23:33:01.440Z,2.83
2023-10-07T23:35:32.509Z,3.03
2023-10-07T23:38:03.229Z,3.23
2023-10-07T23:40:33.110Z,3.17
2023-10-07T23:43:03.682Z,2.73
2023-10-07T23:45:36.376Z,3.50
2023-10-07T23:48:09.737Z,3.70
2023-10-07T23:50:44.112Z,3.60
2023-10-07T23:53:15.725Z,3.43
2023-10-07T23:55:47.138Z,3.83
2023-10-07T23:58:22.533Z,3.57
